Main page
METAR-TAF:

METAR-TAF

Airports :

Chișinău International Airport

Chisinau, Moldova

latitude: 46-55-40N, longitude: 028-55-51E, elevation: 122 m

Current weather observation

The report was made 16 minutes ago, at 08:30 UTC
Wind 7 kt from the East, varying between Northeast and South/Southeast
Temperature 12°C
Humidity 24%
Pressure 1037 hPa
Visibility 10 km or more
no clouds below 1500 m and no cumulonimbus

METAR: LUKK 060830Z 09007KT 040V150 CAVOK 12/M08 Q1037 R08/D NOSIG

Time: 11:46 (08:46 UTC)

Forecast

The report was made 3 hours and 26 minutes ago, at 05:20 UTC
Forecast valid from 06 at 06 UTC to 07 at 06 UTC
Wind 8 kt from the East
Visibility 10 km or more
no clouds below 1500 m and no cumulonimbus
Becoming
from 06 at 17 UTC to 06 at 19 UTC
Wind 2 kt from variable directions

TAF: LUKK 060520Z 0606/0706 08008KT CAVOK BECMG 0617/0619 VRB02KT

Weather observations and forecasts of more than 4000 airports (METAR and TAF reports).

The available stations are represented by yellow and red dots on the map.

Hover mouse over dot to see the name of the station.

Then click to see weather observations and forecasts.

To change the map : click on the green buttons with a black cross to zoom in, on the green button with a dash to zoom out, or on the green arrows for adjacent maps.


METAR-TAF: